Horn Island — WDH5949 — position and weather

sailwx.info

Track history (hours):
 
Tides and Currents Weather Stations Pressure Air Temp Water Temp Dewpoint Dewpoint Depression Visibility Wind Speed Wind Dir Waves Ship Positions

Horn Island

Owner: Higman Barge Lines., Inc, Orange, TX. More information available from US FCC via Universal Licensing System and Coast Guard Vessel Documentation Center.

Last reported at 2017-Nov-24 14:30 UTC. Time now 2017-Nov-24 14:57 UTC.
Position N 32°40' W 091°06'.

Length 24 m; draft 9.6 m.

Type: Towing. MMSI: 367633090.

Date/timePositionNaut miles runAvg speedWind from/ knotsBaromVisibWave heightAir tempDewpointWater temp
2017-Nov-24 14:30N 32°40' W 091°06'3 5.5
2017-Nov-24 14:00N 32°39' W 091°09'3 5.1
2017-Nov-24 13:31N 32°37' W 091°09'3 5.7
2017-Nov-24 13:00N 32°34' W 091°07'2 4.7
2017-Nov-24 12:30N 32°32' W 091°06'2 4.4
2017-Nov-24 12:01N 32°30' W 091°07'0 0.4
2017-Nov-24 11:30N 32°30' W 091°07'0 0.8
2017-Nov-24 11:00N 32°29' W 091°07'3 5.9
2017-Nov-24 10:31N 32°27' W 091°05'3 5.9
2017-Nov-24 10:01N 32°26' W 091°02'3 5.3
2017-Nov-24 09:30N 32°24' W 090°59'2 5.0
2017-Nov-24 09:01N 32°22' W 091°00'3 5.5
2017-Nov-24 08:31N 32°21' W 090°57'3 5.3
2017-Nov-24 08:00N 32°20' W 090°54'3 5.2
2017-Nov-24 07:31N 32°18' W 090°55'3 5.3
2017-Nov-24 07:01N 32°16' W 090°58'2 4.7
2017-Nov-24 06:30N 32°14' W 090°59'2 4.6
2017-Nov-24 06:00N 32°12' W 090°59'2 4.7
2017-Nov-24 05:30N 32°09' W 091°00'2 4.4
2017-Nov-24 05:00N 32°07' W 091°01'2 4.0
2017-Nov-24 04:30N 32°08' W 091°03'1 2.0
2017-Nov-24 03:59N 32°08' W 091°05'1 2.7
2017-Nov-24 03:31N 32°08' W 091°06'5 2.2
2017-Nov-24 01:20N 32°04' W 091°03'3 4.7
2017-Nov-24 00:38N 32°01' W 091°05'1 3.4
2017-Nov-24 00:26N 32°00' W 091°05'  
2017-Nov-18 05:17N 31°28' W 091°31'38 8.5
2017-Nov-18 00:49N 31°60' W 091°06'310.3
2017-Nov-18 00:30N 32°02' W 091°04'4 9.1
2017-Nov-18 00:00N 32°06' W 091°06'4 6.7
2017-Nov-17 23:27N 32°07' W 091°02'410.0
2017-Nov-17 23:00N 32°11' W 090°60'510.6
2017-Nov-17 22:30N 32°16' W 090°58'5 9.7
2017-Nov-17 22:00N 32°20' W 090°54'5 9.4
2017-Nov-17 21:30N 32°21' W 090°59'4 8.8
2017-Nov-17 21:00N 32°25' W 091°01'510.6
2017-Nov-17 20:30N 32°28' W 091°06'5 9.9
2017-Nov-17 19:58N 32°33' W 091°06'510.5
2017-Nov-17 19:29N 32°37' W 091°09'  
Track history (hours):
 
Tides and Currents Weather Stations Pressure Air Temp Water Temp Dewpoint Dewpoint Depression Visibility Wind Speed Wind Dir Waves Ship Positions

Horn Island

Owner: Higman Barge Lines., Inc, Orange, TX. More information available from US FCC via Universal Licensing System and Coast Guard Vessel Documentation Center.

Last reported at 2017-Nov-24 14:30 UTC. Time now 2017-Nov-24 14:57 UTC.
Position N 32°40' W 091°06'.

Length 24 m; draft 9.6 m.

Type: Towing. MMSI: 367633090.

Date/timePositionNaut miles runAvg speedWind from/ knotsBaromVisibWave heightAir tempDewpointWater temp
2017-Nov-24 14:30N 32°40' W 091°06'3 5.5
2017-Nov-24 14:00N 32°39' W 091°09'3 5.1
2017-Nov-24 13:31N 32°37' W 091°09'3 5.7
2017-Nov-24 13:00N 32°34' W 091°07'2 4.7
2017-Nov-24 12:30N 32°32' W 091°06'2 4.4
2017-Nov-24 12:01N 32°30' W 091°07'0 0.4
2017-Nov-24 11:30N 32°30' W 091°07'0 0.8
2017-Nov-24 11:00N 32°29' W 091°07'3 5.9
2017-Nov-24 10:31N 32°27' W 091°05'3 5.9
2017-Nov-24 10:01N 32°26' W 091°02'3 5.3
2017-Nov-24 09:30N 32°24' W 090°59'2 5.0
2017-Nov-24 09:01N 32°22' W 091°00'3 5.5
2017-Nov-24 08:31N 32°21' W 090°57'3 5.3
2017-Nov-24 08:00N 32°20' W 090°54'3 5.2
2017-Nov-24 07:31N 32°18' W 090°55'3 5.3
2017-Nov-24 07:01N 32°16' W 090°58'2 4.7
2017-Nov-24 06:30N 32°14' W 090°59'2 4.6
2017-Nov-24 06:00N 32°12' W 090°59'2 4.7
2017-Nov-24 05:30N 32°09' W 091°00'2 4.4
2017-Nov-24 05:00N 32°07' W 091°01'2 4.0
2017-Nov-24 04:30N 32°08' W 091°03'1 2.0
2017-Nov-24 03:59N 32°08' W 091°05'1 2.7
2017-Nov-24 03:31N 32°08' W 091°06'5 2.2
2017-Nov-24 01:20N 32°04' W 091°03'3 4.7
2017-Nov-24 00:38N 32°01' W 091°05'1 3.4
2017-Nov-24 00:26N 32°00' W 091°05'  
2017-Nov-18 05:17N 31°28' W 091°31'38 8.5
2017-Nov-18 00:49N 31°60' W 091°06'310.3
2017-Nov-18 00:30N 32°02' W 091°04'4 9.1
2017-Nov-18 00:00N 32°06' W 091°06'4 6.7
2017-Nov-17 23:27N 32°07' W 091°02'410.0
2017-Nov-17 23:00N 32°11' W 090°60'510.6
2017-Nov-17 22:30N 32°16' W 090°58'5 9.7
2017-Nov-17 22:00N 32°20' W 090°54'5 9.4
2017-Nov-17 21:30N 32°21' W 090°59'4 8.8
2017-Nov-17 21:00N 32°25' W 091°01'510.6
2017-Nov-17 20:30N 32°28' W 091°06'5 9.9
2017-Nov-17 19:58N 32°33' W 091°06'510.5
2017-Nov-17 19:29N 32°37' W 091°09'  

Dump ship's entire track history